sensor_id;sensor_type;location;lat;lon;timestamp;pressure;altitude;pressure_sealevel;temperature
24201;BMP280;2801;50.972;7.856;2023-02-02T00:01:33;97863.00;;;3.46
24201;BMP280;2801;50.972;7.856;2023-02-02T00:04:00;97877.31;;;3.50
24201;BMP280;2801;50.972;7.856;2023-02-02T00:06:29;97901.69;;;3.52
24201;BMP280;2801;50.972;7.856;2023-02-02T00:08:58;97886.34;;;3.49
24201;BMP280;2801;50.972;7.856;2023-02-02T00:11:26;97860.09;;;3.42
24201;BMP280;2801;50.972;7.856;2023-02-02T00:13:54;97875.19;;;3.37
24201;BMP280;2801;50.972;7.856;2023-02-02T00:19:01;97877.34;;;3.30
24201;BMP280;2801;50.972;7.856;2023-02-02T00:21:28;97874.69;;;3.30
24201;BMP280;2801;50.972;7.856;2023-02-02T00:23:55;97865.13;;;3.29
24201;BMP280;2801;50.972;7.856;2023-02-02T00:26:22;97871.75;;;3.31
24201;BMP280;2801;50.972;7.856;2023-02-02T00:28:49;97870.97;;;3.31
24201;BMP280;2801;50.972;7.856;2023-02-02T00:31:16;97878.41;;;3.34
24201;BMP280;2801;50.972;7.856;2023-02-02T00:33:48;97877.06;;;3.36
24201;BMP280;2801;50.972;7.856;2023-02-02T00:36:16;97872.81;;;3.40
24201;BMP280;2801;50.972;7.856;2023-02-02T00:38:44;97865.13;;;3.44
24201;BMP280;2801;50.972;7.856;2023-02-02T00:41:11;97863.78;;;3.46
24201;BMP280;2801;50.972;7.856;2023-02-02T00:43:38;97858.75;;;3.50
24201;BMP280;2801;50.972;7.856;2023-02-02T00:46:12;97864.84;;;3.50
24201;BMP280;2801;50.972;7.856;2023-02-02T00:48:39;97860.88;;;3.53
24201;BMP280;2801;50.972;7.856;2023-02-02T00:51:06;97853.19;;;3.56
24201;BMP280;2801;50.972;7.856;2023-02-02T00:53:33;97858.72;;;3.60
24201;BMP280;2801;50.972;7.856;2023-02-02T00:56:00;97855.56;;;3.58
24201;BMP280;2801;50.972;7.856;2023-02-02T00:58:27;97844.44;;;3.61
24201;BMP280;2801;50.972;7.856;2023-02-02T01:00:53;97841.25;;;3.64
24201;BMP280;2801;50.972;7.856;2023-02-02T01:03:20;97835.38;;;3.67
24201;BMP280;2801;50.972;7.856;2023-02-02T01:05:47;97842.53;;;3.71
24201;BMP280;2801;50.972;7.856;2023-02-02T01:08:15;97846.25;;;3.75
24201;BMP280;2801;50.972;7.856;2023-02-02T01:10:42;97842.25;;;3.78
24201;BMP280;2801;50.972;7.856;2023-02-02T01:13:09;97828.22;;;3.77
24201;BMP280;2801;50.972;7.856;2023-02-02T01:15:36;97831.91;;;3.81
24201;BMP280;2801;50.972;7.856;2023-02-02T01:18:03;97835.34;;;3.82
24201;BMP280;2801;50.972;7.856;2023-02-02T01:20:30;97840.63;;;3.82
24201;BMP280;2801;50.972;7.856;2023-02-02T01:22:57;97826.84;;;3.85
24201;BMP280;2801;50.972;7.856;2023-02-02T01:25:24;97830.31;;;3.85
24201;BMP280;2801;50.972;7.856;2023-02-02T01:27:52;97834.00;;;3.89
24201;BMP280;2801;50.972;7.856;2023-02-02T01:30:19;97832.13;;;3.90
24201;BMP280;2801;50.972;7.856;2023-02-02T01:32:46;97837.19;;;3.86
24201;BMP280;2801;50.972;7.856;2023-02-02T01:35:14;97845.38;;;3.90
24201;BMP280;2801;50.972;7.856;2023-02-02T01:37:40;97847.25;;;3.89
24201;BMP280;2801;50.972;7.856;2023-02-02T01:40:08;97849.34;;;3.97
24201;BMP280;2801;50.972;7.856;2023-02-02T01:42:36;97859.69;;;3.99
24201;BMP280;2801;50.972;7.856;2023-02-02T01:45:12;97851.44;;;4.06
24201;BMP280;2801;50.972;7.856;2023-02-02T01:47:56;97859.38;;;4.11
24201;BMP280;2801;50.972;7.856;2023-02-02T01:50:32;97859.09;;;4.17
24201;BMP280;2801;50.972;7.856;2023-02-02T01:53:03;97874.44;;;4.25
24201;BMP280;2801;50.972;7.856;2023-02-02T01:55:33;97867.75;;;4.33
24201;BMP280;2801;50.972;7.856;2023-02-02T01:58:17;97874.66;;;4.39
24201;BMP280;2801;50.972;7.856;2023-02-02T02:00:45;97875.94;;;4.46
24201;BMP280;2801;50.972;7.856;2023-02-02T02:03:16;97876.72;;;4.47
24201;BMP280;2801;50.972;7.856;2023-02-02T02:05:51;97878.31;;;4.53
24201;BMP280;2801;50.972;7.856;2023-02-02T02:08:25;97891.53;;;4.58
24201;BMP280;2801;50.972;7.856;2023-02-02T02:10:52;97887.03;;;4.58
24201;BMP280;2801;50.972;7.856;2023-02-02T02:13:23;97879.34;;;4.57
24201;BMP280;2801;50.972;7.856;2023-02-02T02:32:04;97883.75;;;4.71
24201;BMP280;2801;50.972;7.856;2023-02-02T02:34:51;97889.88;;;4.72
24201;BMP280;2801;50.972;7.856;2023-02-02T02:37:49;97881.34;;;4.75
24201;BMP280;2801;50.972;7.856;2023-02-02T02:40:35;97879.22;;;4.77
24201;BMP280;2801;50.972;7.856;2023-02-02T02:43:31;97870.69;;;4.80
24201;BMP280;2801;50.972;7.856;2023-02-02T02:45:58;97865.13;;;4.81
24201;BMP280;2801;50.972;7.856;2023-02-02T02:48:27;97868.00;;;4.85
24201;BMP280;2801;50.972;7.856;2023-02-02T02:54:06;97872.72;;;4.93
24201;BMP280;2801;50.972;7.856;2023-02-02T03:00:17;97869.47;;;5.01
24201;BMP280;2801;50.972;7.856;2023-02-02T03:03:38;97876.09;;;5.03
24201;BMP280;2801;50.972;7.856;2023-02-02T03:09:07;97875.28;;;5.08
24201;BMP280;2801;50.972;7.856;2023-02-02T03:11:36;97866.19;;;5.14
24201;BMP280;2801;50.972;7.856;2023-02-02T03:14:03;97872.00;;;5.16
24201;BMP280;2801;50.972;7.856;2023-02-02T03:16:36;97862.94;;;5.22
24201;BMP280;2801;50.972;7.856;2023-02-02T03:19:04;97865.03;;;5.25
24201;BMP280;2801;50.972;7.856;2023-02-02T03:21:33;97855.94;;;5.31
24201;BMP280;2801;50.972;7.856;2023-02-02T03:24:00;97846.59;;;5.33
24201;BMP280;2801;50.972;7.856;2023-02-02T03:26:27;97854.56;;;5.38
24201;BMP280;2801;50.972;7.856;2023-02-02T03:28:55;97847.31;;;5.44
24201;BMP280;2801;50.972;7.856;2023-02-02T03:31:26;97847.50;;;5.52
24201;BMP280;2801;50.972;7.856;2023-02-02T03:33:55;97848.53;;;5.56
24201;BMP280;2801;50.972;7.856;2023-02-02T03:36:22;97848.19;;;5.63
24201;BMP280;2801;50.972;7.856;2023-02-02T03:38:49;97854.53;;;5.67
24201;BMP280;2801;50.972;7.856;2023-02-02T03:41:15;97851.81;;;5.72
24201;BMP280;2801;50.972;7.856;2023-02-02T03:43:42;97844.56;;;5.77
24201;BMP280;2801;50.972;7.856;2023-02-02T03:46:09;97846.16;;;5.78
24201;BMP280;2801;50.972;7.856;2023-02-02T03:48:37;97859.19;;;5.80
24201;BMP280;2801;50.972;7.856;2023-02-02T03:51:12;97850.66;;;5.83
24201;BMP280;2801;50.972;7.856;2023-02-02T03:53:41;97851.69;;;5.87
24201;BMP280;2801;50.972;7.856;2023-02-02T03:56:14;97868.38;;;5.92
24201;BMP280;2801;50.972;7.856;2023-02-02T03:58:41;97856.38;;;5.95
24201;BMP280;2801;50.972;7.856;2023-02-02T04:01:11;97861.97;;;5.93
24201;BMP280;2801;50.972;7.856;2023-02-02T04:03:39;97859.03;;;5.95
24201;BMP280;2801;50.972;7.856;2023-02-02T04:06:05;97863.31;;;5.96
24201;BMP280;2801;50.972;7.856;2023-02-02T04:08:32;97856.38;;;5.95
24201;BMP280;2801;50.972;7.856;2023-02-02T04:10:59;97859.28;;;5.98
24201;BMP280;2801;50.972;7.856;2023-02-02T04:13:26;97861.88;;;6.03
24201;BMP280;2801;50.972;7.856;2023-02-02T04:16:00;97866.63;;;6.06
24201;BMP280;2801;50.972;7.856;2023-02-02T04:18:27;97861.31;;;6.06
24201;BMP280;2801;50.972;7.856;2023-02-02T04:20:59;97867.94;;;6.09
24201;BMP280;2801;50.972;7.856;2023-02-02T04:23:27;97860.16;;;6.12
24201;BMP280;2801;50.972;7.856;2023-02-02T04:25:54;97851.91;;;6.14
24201;BMP280;2801;50.972;7.856;2023-02-02T04:28:21;97857.50;;;6.12
24201;BMP280;2801;50.972;7.856;2023-02-02T04:30:50;97851.84;;;6.19
24201;BMP280;2801;50.972;7.856;2023-02-02T04:33:18;97851.56;;;6.20
24201;BMP280;2801;50.972;7.856;2023-02-02T04:35:45;97849.69;;;6.21
24201;BMP280;2801;50.972;7.856;2023-02-02T04:38:12;97849.47;;;6.17
24201;BMP280;2801;50.972;7.856;2023-02-02T04:40:45;97845.16;;;6.21
24201;BMP280;2801;50.972;7.856;2023-02-02T04:43:13;97849.66;;;6.26
24201;BMP280;2801;50.972;7.856;2023-02-02T04:45:40;97849.66;;;6.26
24201;BMP280;2801;50.972;7.856;2023-02-02T04:48:08;97854.66;;;6.27
24201;BMP280;2801;50.972;7.856;2023-02-02T04:50:35;97851.72;;;6.29
24201;BMP280;2801;50.972;7.856;2023-02-02T04:53:03;97853.59;;;6.28
24201;BMP280;2801;50.972;7.856;2023-02-02T04:55:30;97848.84;;;6.25
24201;BMP280;2801;50.972;7.856;2023-02-02T04:58:01;97853.59;;;6.28
24201;BMP280;2801;50.972;7.856;2023-02-02T05:00:27;97857.28;;;6.32
24201;BMP280;2801;50.972;7.856;2023-02-02T05:02:54;97855.19;;;6.29
24201;BMP280;2801;50.972;7.856;2023-02-02T05:05:21;97852.72;;;6.33
24201;BMP280;2801;50.972;7.856;2023-02-02T05:07:48;97858.03;;;6.33
24201;BMP280;2801;50.972;7.856;2023-02-02T05:10:16;97853.53;;;6.33
24201;BMP280;2801;50.972;7.856;2023-02-02T05:12:42;97859.94;;;6.32
24201;BMP280;2801;50.972;7.856;2023-02-02T05:15:10;97853.31;;;6.30
24201;BMP280;2801;50.972;7.856;2023-02-02T05:17:36;97873.53;;;6.31
24201;BMP280;2801;50.972;7.856;2023-02-02T05:20:04;97878.28;;;6.34
24201;BMP280;2801;50.972;7.856;2023-02-02T05:22:30;97883.91;;;6.32
24201;BMP280;2801;50.972;7.856;2023-02-02T05:24:57;97880.44;;;6.32
24201;BMP280;2801;50.972;7.856;2023-02-02T05:27:24;97863.97;;;6.30
24201;BMP280;2801;50.972;7.856;2023-02-02T05:29:51;97875.91;;;6.32
24201;BMP280;2801;50.972;7.856;2023-02-02T05:32:17;97869.22;;;6.35
24201;BMP280;2801;50.972;7.856;2023-02-02T05:34:44;97880.97;;;6.34
24201;BMP280;2801;50.972;7.856;2023-02-02T05:37:11;97872.72;;;6.30
24201;BMP280;2801;50.972;7.856;2023-02-02T05:39:38;97865.25;;;6.32
24201;BMP280;2801;50.972;7.856;2023-02-02T05:42:05;97876.97;;;6.31
24201;BMP280;2801;50.972;7.856;2023-02-02T05:44:31;97878.28;;;6.34
24201;BMP280;2801;50.972;7.856;2023-02-02T05:46:58;97878.56;;;6.32
24201;BMP280;2801;50.972;7.856;2023-02-02T05:49:25;97874.31;;;6.31
24201;BMP280;2801;50.972;7.856;2023-02-02T05:51:55;97874.63;;;6.30
24201;BMP280;2801;50.972;7.856;2023-02-02T05:54:23;97885.47;;;6.33
24201;BMP280;2801;50.972;7.856;2023-02-02T05:56:52;97875.63;;;6.34
24201;BMP280;2801;50.972;7.856;2023-02-02T05:59:20;97884.97;;;6.31
24201;BMP280;2801;50.972;7.856;2023-02-02T06:01:48;97882.28;;;6.31
24201;BMP280;2801;50.972;7.856;2023-02-02T06:04:15;97884.38;;;6.34
24201;BMP280;2801;50.972;7.856;2023-02-02T06:06:42;97882.00;;;6.33
24201;BMP280;2801;50.972;7.856;2023-02-02T06:09:10;97891.59;;;6.34
24201;BMP280;2801;50.972;7.856;2023-02-02T06:11:37;97888.94;;;6.34
24201;BMP280;2801;50.972;7.856;2023-02-02T06:14:05;97888.94;;;6.34
24201;BMP280;2801;50.972;7.856;2023-02-02T06:16:32;97886.00;;;6.35
24201;BMP280;2801;50.972;7.856;2023-02-02T06:18:59;97888.66;;;6.35
24201;BMP280;2801;50.972;7.856;2023-02-02T06:21:26;97894.00;;;6.35
24201;BMP280;2801;50.972;7.856;2023-02-02T06:23:57;97887.06;;;6.34
24201;BMP280;2801;50.972;7.856;2023-02-02T06:26:25;97899.81;;;6.37
24201;BMP280;2801;50.972;7.856;2023-02-02T06:28:53;97903.84;;;6.35
24201;BMP280;2801;50.972;7.856;2023-02-02T06:31:21;97908.63;;;6.33
24201;BMP280;2801;50.972;7.856;2023-02-02T06:33:57;97904.63;;;6.35
24201;BMP280;2801;50.972;7.856;2023-02-02T06:36:26;97899.81;;;6.37
24201;BMP280;2801;50.972;7.856;2023-02-02T06:38:55;97891.25;;;6.40
24201;BMP280;2801;50.972;7.856;2023-02-02T06:41:23;97888.06;;;6.38
24201;BMP280;2801;50.972;7.856;2023-02-02T06:43:51;97895.56;;;6.36
24201;BMP280;2801;50.972;7.856;2023-02-02T06:46:18;97899.25;;;6.40
24201;BMP280;2801;50.972;7.856;2023-02-02T06:48:45;97897.38;;;6.41
24201;BMP280;2801;50.972;7.856;2023-02-02T06:51:12;97903.19;;;6.43
24201;BMP280;2801;50.972;7.856;2023-02-02T06:53:39;97901.91;;;6.40
24201;BMP280;2801;50.972;7.856;2023-02-02T06:56:10;97902.13;;;6.44
24201;BMP280;2801;50.972;7.856;2023-02-02T06:58:38;97906.94;;;6.42
24201;BMP280;2801;50.972;7.856;2023-02-02T07:01:09;97907.00;;;6.37
24201;BMP280;2801;50.972;7.856;2023-02-02T07:03:36;97916.50;;;6.43
24201;BMP280;2801;50.972;7.856;2023-02-02T07:06:23;97901.63;;;6.42
24201;BMP280;2801;50.972;7.856;2023-02-02T07:08:51;97913.78;;;6.48
24201;BMP280;2801;50.972;7.856;2023-02-02T07:11:31;97900.03;;;6.41
24201;BMP280;2801;50.972;7.856;2023-02-02T07:14:03;97908.53;;;6.43
24201;BMP280;2801;50.972;7.856;2023-02-02T07:16:31;97905.56;;;6.44
24201;BMP280;2801;50.972;7.856;2023-02-02T07:18:57;97911.72;;;6.45
24201;BMP280;2801;50.972;7.856;2023-02-02T07:21:26;97919.69;;;6.45
24201;BMP280;2801;50.972;7.856;2023-02-02T07:24:02;97904.78;;;6.44
24201;BMP280;2801;50.972;7.856;2023-02-02T07:26:30;97927.38;;;6.46
24201;BMP280;2801;50.972;7.856;2023-02-02T07:28:57;97923.41;;;6.44
24201;BMP280;2801;50.972;7.856;2023-02-02T07:31:25;97924.50;;;6.43
24201;BMP280;2801;50.972;7.856;2023-02-02T07:33:53;97915.66;;;6.47
24201;BMP280;2801;50.972;7.856;2023-02-02T07:36:22;97929.56;;;6.44
24201;BMP280;2801;50.972;7.856;2023-02-02T07:38:52;97930.56;;;6.48
24201;BMP280;2801;50.972;7.856;2023-02-02T07:41:21;97924.44;;;6.48
24201;BMP280;2801;50.972;7.856;2023-02-02T07:43:49;97926.31;;;6.47
24201;BMP280;2801;50.972;7.856;2023-02-02T07:46:17;97934.06;;;6.44
24201;BMP280;2801;50.972;7.856;2023-02-02T07:48:44;97915.38;;;6.49
24201;BMP280;2801;50.972;7.856;2023-02-02T07:51:15;97946.81;;;6.47
24201;BMP280;2801;50.972;7.856;2023-02-02T07:53:45;97941.78;;;6.45
24201;BMP280;2801;50.972;7.856;2023-02-02T07:56:20;97942.31;;;6.47
24201;BMP280;2801;50.972;7.856;2023-02-02T07:58:47;97947.06;;;6.50
24201;BMP280;2801;50.972;7.856;2023-02-02T08:01:15;97940.41;;;6.48
24201;BMP280;2801;50.972;7.856;2023-02-02T08:03:43;97950.50;;;6.51
24201;BMP280;2801;50.972;7.856;2023-02-02T08:06:35;97952.88;;;6.52
24201;BMP280;2801;50.972;7.856;2023-02-02T08:09:06;97942.44;;;6.56
24201;BMP280;2801;50.972;7.856;2023-02-02T08:11:37;97953.09;;;6.56
24201;BMP280;2801;50.972;7.856;2023-02-02T08:14:05;97957.09;;;6.58
24201;BMP280;2801;50.972;7.856;2023-02-02T08:16:33;97954.44;;;6.58
24201;BMP280;2801;50.972;7.856;2023-02-02T08:19:00;97958.16;;;6.57
24201;BMP280;2801;50.972;7.856;2023-02-02T08:21:28;97960.25;;;6.60
24201;BMP280;2801;50.972;7.856;2023-02-02T08:23:55;97960.25;;;6.60
24201;BMP280;2801;50.972;7.856;2023-02-02T08:26:26;97977.03;;;6.61
24201;BMP280;2801;50.972;7.856;2023-02-02T08:29:07;97978.63;;;6.62
24201;BMP280;2801;50.972;7.856;2023-02-02T08:31:38;97982.09;;;6.62
24201;BMP280;2801;50.972;7.856;2023-02-02T08:34:07;97969.78;;;6.66
24201;BMP280;2801;50.972;7.856;2023-02-02T08:36:35;97979.56;;;6.71
24201;BMP280;2801;50.972;7.856;2023-02-02T08:39:10;97982.28;;;6.66
24201;BMP280;2801;50.972;7.856;2023-02-02T08:41:38;97987.06;;;6.69
24201;BMP280;2801;50.972;7.856;2023-02-02T08:44:12;97991.84;;;6.67
24201;BMP280;2801;50.972;7.856;2023-02-02T08:46:40;97989.72;;;6.69
24201;BMP280;2801;50.972;7.856;2023-02-02T08:49:11;97986.25;;;6.68
24201;BMP280;2801;50.972;7.856;2023-02-02T08:51:39;97990.53;;;6.69
24201;BMP280;2801;50.972;7.856;2023-02-02T08:54:07;98004.91;;;6.68
24201;BMP280;2801;50.972;7.856;2023-02-02T08:56:34;98008.09;;;6.70
24201;BMP280;2801;50.972;7.856;2023-02-02T08:59:01;98010.75;;;6.70
24201;BMP280;2801;50.972;7.856;2023-02-02T09:01:33;98006.78;;;6.68
24201;BMP280;2801;50.972;7.856;2023-02-02T09:04:07;98008.09;;;6.70
24201;BMP280;2801;50.972;7.856;2023-02-02T09:06:39;98005.72;;;6.69
24201;BMP280;2801;50.972;7.856;2023-02-02T09:09:10;98013.69;;;6.69
24201;BMP280;2801;50.972;7.856;2023-02-02T09:11:38;98016.66;;;6.67
24201;BMP280;2801;50.972;7.856;2023-02-02T09:14:06;98012.91;;;6.68
24201;BMP280;2801;50.972;7.856;2023-02-02T09:16:34;98026.50;;;6.67
24201;BMP280;2801;50.972;7.856;2023-02-02T09:19:02;98023.78;;;6.72
24201;BMP280;2801;50.972;7.856;2023-02-02T09:21:29;98028.56;;;6.75
24201;BMP280;2801;50.972;7.856;2023-02-02T09:23:56;98034.66;;;6.75
24201;BMP280;2801;50.972;7.856;2023-02-02T09:26:28;98032.28;;;6.74
24201;BMP280;2801;50.972;7.856;2023-02-02T09:28:59;98037.06;;;6.77
24201;BMP280;2801;50.972;7.856;2023-02-02T09:31:33;98040.25;;;6.79
24201;BMP280;2801;50.972;7.856;2023-02-02T09:34:07;98041.25;;;6.83
24201;BMP280;2801;50.972;7.856;2023-02-02T09:36:35;98046.88;;;6.81
24201;BMP280;2801;50.972;7.856;2023-02-02T09:39:03;98060.75;;;6.78
24201;BMP280;2801;50.972;7.856;2023-02-02T09:44:43;98058.66;;;6.75
24201;BMP280;2801;50.972;7.856;2023-02-02T09:47:46;98063.41;;;6.78
24201;BMP280;2801;50.972;7.856;2023-02-02T09:50:30;98064.22;;;6.79
24201;BMP280;2801;50.972;7.856;2023-02-02T09:53:22;98070.88;;;6.76
24201;BMP280;2801;50.972;7.856;2023-02-02T09:55:57;98080.22;;;6.79
24201;BMP280;2801;50.972;7.856;2023-02-02T09:59:05;98074.88;;;6.79
24201;BMP280;2801;50.972;7.856;2023-02-02T10:01:52;98082.56;;;6.80
24201;BMP280;2801;50.972;7.856;2023-02-02T10:04:35;98096.34;;;6.87
24201;BMP280;2801;50.972;7.856;2023-02-02T10:07:16;98098.75;;;6.89
24201;BMP280;2801;50.972;7.856;2023-02-02T10:09:57;98093.66;;;6.92
24201;BMP280;2801;50.972;7.856;2023-02-02T10:13:16;98102.94;;;6.95
24201;BMP280;2801;50.972;7.856;2023-02-02T10:15:52;98095.44;;;6.97
24201;BMP280;2801;50.972;7.856;2023-02-02T10:21:28;98096.53;;;6.96
24201;BMP280;2801;50.972;7.856;2023-02-02T10:23:58;98110.09;;;6.99
24201;BMP280;2801;50.972;7.856;2023-02-02T10:26:39;98114.09;;;6.97
24201;BMP280;2801;50.972;7.856;2023-02-02T10:34:56;98114.91;;;6.97
24201;BMP280;2801;50.972;7.856;2023-02-02T10:38:16;98121.53;;;7.00
24201;BMP280;2801;50.972;7.856;2023-02-02T10:41:16;98127.44;;;6.97
24201;BMP280;2801;50.972;7.856;2023-02-02T10:44:19;98139.72;;;6.98
24201;BMP280;2801;50.972;7.856;2023-02-02T10:46:54;98130.09;;;6.97
24201;BMP280;2801;50.972;7.856;2023-02-02T10:49:37;98120.81;;;6.94
24201;BMP280;2801;50.972;7.856;2023-02-02T11:00:34;98131.72;;;6.98
24201;BMP280;2801;50.972;7.856;2023-02-02T11:03:02;98129.78;;;7.03
24201;BMP280;2801;50.972;7.856;2023-02-02T11:05:30;98135.06;;;7.08
24201;BMP280;2801;50.972;7.856;2023-02-02T11:08:20;98136.59;;;7.14
24201;BMP280;2801;50.972;7.856;2023-02-02T11:10:53;98137.28;;;7.20
24201;BMP280;2801;50.972;7.856;2023-02-02T11:13:32;98137.59;;;7.18
24201;BMP280;2801;50.972;7.856;2023-02-02T11:18:43;98119.44;;;7.20
24201;BMP280;2801;50.972;7.856;2023-02-02T11:21:39;98121.38;;;7.15
24201;BMP280;2801;50.972;7.856;2023-02-02T11:24:30;98122.16;;;7.15
24201;BMP280;2801;50.972;7.856;2023-02-02T11:27:13;98131.81;;;7.11
24201;BMP280;2801;50.972;7.856;2023-02-02T11:29:50;98131.81;;;7.11
24201;BMP280;2801;50.972;7.856;2023-02-02T11:38:13;98117.13;;;7.14
24201;BMP280;2801;50.972;7.856;2023-02-02T11:40:27;98127.50;;;7.15
24201;BMP280;2801;50.972;7.856;2023-02-02T11:42:58;98122.75;;;7.12
24201;BMP280;2801;50.972;7.856;2023-02-02T11:45:38;98125.94;;;7.14
24201;BMP280;2801;50.972;7.856;2023-02-02T11:48:18;98126.13;;;7.18
24201;BMP280;2801;50.972;7.856;2023-02-02T11:50:58;98125.94;;;7.14
24201;BMP280;2801;50.972;7.856;2023-02-02T11:53:28;98127.78;;;7.14
24201;BMP280;2801;50.972;7.856;2023-02-02T11:56:06;98117.19;;;7.09
24201;BMP280;2801;50.972;7.856;2023-02-02T11:58:56;98104.91;;;7.08
24201;BMP280;2801;50.972;7.856;2023-02-02T12:01:30;98130.53;;;7.09
24201;BMP280;2801;50.972;7.856;2023-02-02T12:06:44;98114.28;;;7.05
24201;BMP280;2801;50.972;7.856;2023-02-02T12:09:20;98123.09;;;7.06
24201;BMP280;2801;50.972;7.856;2023-02-02T12:21:50;98125.50;;;7.02
24201;BMP280;2801;50.972;7.856;2023-02-02T12:24:38;98129.50;;;7.05
24201;BMP280;2801;50.972;7.856;2023-02-02T12:27:16;98146.00;;;7.07
24201;BMP280;2801;50.972;7.856;2023-02-02T12:30:12;98116.22;;;7.00
24201;BMP280;2801;50.972;7.856;2023-02-02T12:32:49;98125.00;;;7.00
24201;BMP280;2801;50.972;7.856;2023-02-02T12:35:37;98123.44;;;6.99
24201;BMP280;2801;50.972;7.856;2023-02-02T12:38:41;98130.06;;;7.02
24201;BMP280;2801;50.972;7.856;2023-02-02T12:41:22;98122.56;;;7.04
24201;BMP280;2801;50.972;7.856;2023-02-02T12:44:12;98130.00;;;7.07
24201;BMP280;2801;50.972;7.856;2023-02-02T12:47:11;98134.59;;;7.01
24201;BMP280;2801;50.972;7.856;2023-02-02T12:50:30;98140.19;;;7.00
24201;BMP280;2801;50.972;7.856;2023-02-02T12:53:39;98143.13;;;7.03
24201;BMP280;2801;50.972;7.856;2023-02-02T13:09:03;98146.09;;;6.97
24201;BMP280;2801;50.972;7.856;2023-02-02T13:11:39;98151.44;;;6.97
24201;BMP280;2801;50.972;7.856;2023-02-02T13:14:31;98146.34;;;7.00
24201;BMP280;2801;50.972;7.856;2023-02-02T13:17:08;98161.25;;;7.01
24201;BMP280;2801;50.972;7.856;2023-02-02T13:19:40;98156.72;;;7.02
24201;BMP280;2801;50.972;7.856;2023-02-02T13:22:25;98144.41;;;7.06
24201;BMP280;2801;50.972;7.856;2023-02-02T13:24:57;98152.91;;;7.08
24201;BMP280;2801;50.972;7.856;2023-02-02T13:27:29;98155.56;;;7.08
24201;BMP280;2801;50.972;7.856;2023-02-02T13:30:21;98147.34;;;7.04
24201;BMP280;2801;50.972;7.856;2023-02-02T13:32:52;98166.75;;;7.10
24201;BMP280;2801;50.972;7.856;2023-02-02T13:35:41;98170.00;;;7.07
24201;BMP280;2801;50.972;7.856;2023-02-02T13:38:28;98160.88;;;7.13
24201;BMP280;2801;50.972;7.856;2023-02-02T13:41:04;98166.97;;;7.13
24201;BMP280;2801;50.972;7.856;2023-02-02T13:49:27;98171.94;;;7.25
24201;BMP280;2801;50.972;7.856;2023-02-02T13:52:37;98162.91;;;7.21
24201;BMP280;2801;50.972;7.856;2023-02-02T13:58:22;98174.63;;;7.20
24201;BMP280;2801;50.972;7.856;2023-02-02T14:01:08;98179.94;;;7.25
24201;BMP280;2801;50.972;7.856;2023-02-02T14:03:39;98182.53;;;7.30
24201;BMP280;2801;50.972;7.856;2023-02-02T14:06:15;98186.00;;;7.30
24201;BMP280;2801;50.972;7.856;2023-02-02T14:08:53;98187.38;;;7.28
24201;BMP280;2801;50.972;7.856;2023-02-02T14:11:30;98193.75;;;7.27
24201;BMP280;2801;50.972;7.856;2023-02-02T14:14:14;98188.16;;;7.28
24201;BMP280;2801;50.972;7.856;2023-02-02T14:29:57;98201.25;;;7.25
24201;BMP280;2801;50.972;7.856;2023-02-02T14:34:55;98204.88;;;7.34
24201;BMP280;2801;50.972;7.856;2023-02-02T14:42:47;98200.69;;;7.28
24201;BMP280;2801;50.972;7.856;2023-02-02T14:45:41;98203.09;;;7.29
24201;BMP280;2801;50.972;7.856;2023-02-02T14:50:43;98218.78;;;7.31
24201;BMP280;2801;50.972;7.856;2023-02-02T14:53:19;98215.06;;;7.32
24201;BMP280;2801;50.972;7.856;2023-02-02T14:56:08;98222.03;;;7.28
24201;BMP280;2801;50.972;7.856;2023-02-02T15:06:48;98232.81;;;7.41
24201;BMP280;2801;50.972;7.856;2023-02-02T15:14:36;98231.56;;;7.34
24201;BMP280;2801;50.972;7.856;2023-02-02T15:20:07;98243.13;;;7.24
24201;BMP280;2801;50.972;7.856;2023-02-02T15:22:49;98225.00;;;7.26
24201;BMP280;2801;50.972;7.856;2023-02-02T15:25:27;98247.91;;;7.27
24201;BMP280;2801;50.972;7.856;2023-02-02T15:30:53;98251.19;;;7.19
24201;BMP280;2801;50.972;7.856;2023-02-02T15:33:41;98245.34;;;7.17
24201;BMP280;2801;50.972;7.856;2023-02-02T15:36:19;98242.94;;;7.16
24201;BMP280;2801;50.972;7.856;2023-02-02T15:38:51;98250.38;;;7.19
24201;BMP280;2801;50.972;7.856;2023-02-02T15:41:36;98249.63;;;7.18
24201;BMP280;2801;50.972;7.856;2023-02-02T15:44:27;98251.25;;;7.14
24201;BMP280;2801;50.972;7.856;2023-02-02T15:46:55;98250.94;;;7.16
24201;BMP280;2801;50.972;7.856;2023-02-02T15:49:32;98258.44;;;7.14
24201;BMP280;2801;50.972;7.856;2023-02-02T15:52:22;98247.78;;;7.14
24201;BMP280;2801;50.972;7.856;2023-02-02T15:55:00;98261.38;;;7.12
24201;BMP280;2801;50.972;7.856;2023-02-02T15:57:34;98264.34;;;7.11
24201;BMP280;2801;50.972;7.856;2023-02-02T16:03:05;98275.00;;;7.11
24201;BMP280;2801;50.972;7.856;2023-02-02T16:08:12;98270.50;;;7.06
24201;BMP280;2801;50.972;7.856;2023-02-02T16:10:41;98277.44;;;7.07
24201;BMP280;2801;50.972;7.856;2023-02-02T16:13:26;98289.69;;;7.08
24201;BMP280;2801;50.972;7.856;2023-02-02T16:15:59;98303.03;;;7.08
24201;BMP280;2801;50.972;7.856;2023-02-02T16:18:28;98284.84;;;7.10
24201;BMP280;2801;50.972;7.856;2023-02-02T16:21:01;98287.25;;;7.12
24201;BMP280;2801;50.972;7.856;2023-02-02T16:23:33;98289.91;;;7.12
24201;BMP280;2801;50.972;7.856;2023-02-02T16:26:04;98286.47;;;7.11
24201;BMP280;2801;50.972;7.856;2023-02-02T16:28:32;98288.88;;;7.13
24201;BMP280;2801;50.972;7.856;2023-02-02T16:31:01;98291.25;;;7.14
24201;BMP280;2801;50.972;7.856;2023-02-02T16:33:34;98294.94;;;7.18
24201;BMP280;2801;50.972;7.856;2023-02-02T16:36:20;98301.06;;;7.19
24201;BMP280;2801;50.972;7.856;2023-02-02T16:38:53;98303.72;;;7.19
24201;BMP280;2801;50.972;7.856;2023-02-02T16:41:32;98303.78;;;7.14
24201;BMP280;2801;50.972;7.856;2023-02-02T16:44:41;98317.13;;;7.14
24201;BMP280;2801;50.972;7.856;2023-02-02T16:50:24;98307.25;;;7.14
24201;BMP280;2801;50.972;7.856;2023-02-02T16:53:02;98324.03;;;7.15
24201;BMP280;2801;50.972;7.856;2023-02-02T16:55:32;98317.13;;;7.14
24201;BMP280;2801;50.972;7.856;2023-02-02T16:58:22;98322.16;;;7.15
24201;BMP280;2801;50.972;7.856;2023-02-02T17:01:11;98324.31;;;7.13
24201;BMP280;2801;50.972;7.856;2023-02-02T17:03:53;98317.63;;;7.16
24201;BMP280;2801;50.972;7.856;2023-02-02T17:06:30;98321.63;;;7.13
24201;BMP280;2801;50.972;7.856;2023-02-02T17:09:35;98322.44;;;7.14
24201;BMP280;2801;50.972;7.856;2023-02-02T17:17:46;98331.97;;;7.20
24201;BMP280;2801;50.972;7.856;2023-02-02T17:20:18;98333.34;;;7.17
24201;BMP280;2801;50.972;7.856;2023-02-02T17:22:50;98329.88;;;7.17
24201;BMP280;2801;50.972;7.856;2023-02-02T17:25:26;98338.13;;;7.20
24201;BMP280;2801;50.972;7.856;2023-02-02T17:27:55;98341.88;;;7.19
24201;BMP280;2801;50.972;7.856;2023-02-02T17:30:24;98340.28;;;7.18
24201;BMP280;2801;50.972;7.856;2023-02-02T17:32:51;98332.78;;;7.20
24201;BMP280;2801;50.972;7.856;2023-02-02T17:35:25;98350.84;;;7.28
24201;BMP280;2801;50.972;7.856;2023-02-02T17:37:53;98331.91;;;7.30
24201;BMP280;2801;50.972;7.856;2023-02-02T17:40:22;98336.19;;;7.26